M I D A S
Marine Information and Data Acquisition System
Tripno 1728 of the Zeeleeuw from 2009-07-01 08:36:45 to 2009-07-01 14:22:57
Back to CruiseResearch ActivitiesStationsMapUnderway DataData graphs

EquipmentUnitsComment
TimeDGPSUTC
LatitudeDGPSDM.mWGS84
LongitudeDGPSDM.mWGS84
HeadingGyrodeg 
SOGDGPSknotsSpeed over ground
COGDGPSdegCourse over ground
DepthEcho soundermeters200 kHz
Missing or incorrect values are displayed as -999
Navigation data collected by the RV Zeeleeuw from 2009-07-01 08:30:22 to 2009-07-01 14:34:10
Time Latitude Longitude Heading SOG COG Depth
2009-07-01 08:31:30 51°13.678 2°55.894 113.6 3.9 292 -999
2009-07-01 08:32:30 51°13.698 2°55.79 103.1 3.7 283 -999
2009-07-01 08:33:30 51°13.705 2°55.761 66.3 0.2 42 5
2009-07-01 08:34:29 51°13.705 2°55.748 38.6 1.5 24 4.6
2009-07-01 08:35:27 51°13.76 2°55.718 333.3 5.9 330 11.9
2009-07-01 08:36:27 51°13.874 2°55.612 331.8 8.8 330 12.4
2009-07-01 08:37:29 51°14.009 2°55.498 335.4 8.8 334 12.8
2009-07-01 08:38:27 51°14.137 2°55.398 335.9 8.9 332 12.5
2009-07-01 08:39:26 51°14.252 2°55.258 316.2 8.9 313 12.5
2009-07-01 08:40:26 51°14.354 2°55.083 317.4 9 316 12.3
2009-07-01 08:41:26 51°14.48 2°54.94 327.8 9.8 329 12.3
2009-07-01 08:42:26 51°14.631 2°54.798 327.6 11.1 329 11.7
2009-07-01 08:43:26 51°14.793 2°54.648 328 11.3 330 11.5
2009-07-01 08:44:26 51°14.957 2°54.501 330.9 11.4 333 12.1
2009-07-01 08:45:26 51°15.122 2°54.346 327.6 11.4 328 12.3
2009-07-01 08:46:26 51°15.284 2°54.189 329.1 11.4 329 12.2
2009-07-01 08:47:26 51°15.45 2°54.038 329.6 11.3 331 12
2009-07-01 08:48:26 51°15.616 2°53.891 330.3 11.4 331 12.5
2009-07-01 08:49:26 51°15.784 2°53.749 331 11.5 332 13
2009-07-01 08:50:26 51°15.954 2°53.61 329.8 11.5 332 13.2
2009-07-01 08:51:26 51°16.122 2°53.467 329.2 11.3 331 13.4
2009-07-01 08:52:26 51°16.287 2°53.319 329.5 11.4 331 13.6
2009-07-01 08:53:26 51°16.455 2°53.178 330.3 11.5 332 13.7
2009-07-01 08:54:26 51°16.623 2°53.036 330.1 11.5 331 13.3
2009-07-01 08:55:26 51°16.791 2°52.892 330.3 11.4 332 11.5
2009-07-01 08:56:26 51°16.959 2°52.748 330.5 11.5 332 11.4
2009-07-01 08:57:26 51°17.128 2°52.605 331.4 11.5 331 11.2
2009-07-01 08:58:26 51°17.294 2°52.454 329.7 11.5 331 12
2009-07-01 08:59:26 51°17.466 2°52.313 335 11.6 340 12.2
2009-07-01 09:00:26 51°17.655 2°52.267 0.5 11.7 -999 12
2009-07-01 09:01:26 51°17.85 2°52.302 8.5 11.8 8 12.1
2009-07-01 09:02:26 51°18.047 2°52.346 8.1 11.9 8 12.3
2009-07-01 09:03:26 51°18.242 2°52.393 8.9 11.8 9 12.5
2009-07-01 09:04:26 51°18.434 2°52.443 9.5 11.7 10 12.9
2009-07-01 09:05:26 51°18.626 2°52.492 9.6 11.7 9 13.3
2009-07-01 09:06:26 51°18.819 2°52.542 10.2 12 9 13.6
2009-07-01 09:07:26 51°19.019 2°52.59 9.6 12.2 9 14.4
2009-07-01 09:08:26 51°19.221 2°52.641 10.9 12.4 10 15.3
2009-07-01 09:09:26 51°19.424 2°52.697 9.7 12.3 9 16.1
2009-07-01 09:10:26 51°19.627 2°52.749 10 12.4 9 16.6
2009-07-01 09:11:26 51°19.831 2°52.805 10.2 12.5 11 17.4
2009-07-01 09:12:26 51°20.036 2°52.862 10.5 12.5 9 17.5
2009-07-01 09:13:26 51°20.239 2°52.919 10.8 12.3 10 17.6
2009-07-01 09:14:26 51°20.439 2°52.98 12.1 12.2 12 17.7
2009-07-01 09:15:26 51°20.639 2°53.049 12 12.3 13 17.9
2009-07-01 09:16:26 51°20.837 2°53.114 10.6 12.2 11 17.7
2009-07-01 09:17:26 51°21.035 2°53.182 10.8 12.2 12 17.5
2009-07-01 09:18:26 51°21.235 2°53.248 10.3 12.2 12 17
2009-07-01 09:19:26 51°21.434 2°53.309 9.3 12.3 10 17
2009-07-01 09:20:26 51°21.634 2°53.368 9.3 12.2 10 18.2
2009-07-01 09:21:26 51°21.835 2°53.427 10.6 12.2 10 19.9
2009-07-01 09:22:26 51°22.035 2°53.492 11 12.3 12 20.9
2009-07-01 09:23:26 51°22.236 2°53.558 10.9 12.3 11 22.6
2009-07-01 09:24:26 51°22.437 2°53.62 8.8 12.3 10 23.7
2009-07-01 09:25:26 51°22.639 2°53.678 9.2 12.4 10 23.8
2009-07-01 09:26:26 51°22.842 2°53.735 9.7 12.4 11 23.6
2009-07-01 09:27:26 51°23.046 2°53.8 10.7 12.5 11 22.1
2009-07-01 09:28:26 51°23.252 2°53.86 9.7 12.5 10 21.5
2009-07-01 09:29:26 51°23.456 2°53.921 9.7 12.4 11 20.5
2009-07-01 09:30:26 51°23.659 2°53.988 11.7 12.5 13 20.8
2009-07-01 09:31:26 51°23.863 2°54.056 10 12.5 12 22.2
2009-07-01 09:32:26 51°24.068 2°54.122 11.4 12.6 12 22.8
2009-07-01 09:33:26 51°24.273 2°54.191 9.8 12.6 12 21.9
2009-07-01 09:34:26 51°24.481 2°54.249 8.2 12.6 9 20
2009-07-01 09:35:26 51°24.689 2°54.301 7.1 12.7 9 17.9
2009-07-01 09:36:26 51°24.897 2°54.348 6.6 12.5 7 19.6
2009-07-01 09:37:26 51°25.104 2°54.397 7.5 12.7 9 21.5
2009-07-01 09:38:26 51°25.312 2°54.45 7.1 12.7 8 21.6
2009-07-01 09:39:26 51°25.522 2°54.484 4.5 12.7 6 21.5
2009-07-01 09:40:26 51°25.722 2°54.591 25.7 12.7 22 22.7
2009-07-01 09:41:26 51°25.926 2°54.646 2.1 12.5 1 24.5
2009-07-01 09:42:26 51°26.133 2°54.644 359.6 12.2 358 25.5
2009-07-01 09:43:26 51°26.337 2°54.643 0.7 12.4 1 26.1
2009-07-01 09:44:26 51°26.543 2°54.65 0.4 12.4 1 26.6
2009-07-01 09:45:26 51°26.75 2°54.657 359.9 12.6 1 26.5
2009-07-01 09:46:26 51°26.958 2°54.659 0.1 12.5 -999 28.7
2009-07-01 09:47:26 51°27.166 2°54.661 359.5 12.5 -999 30.2
2009-07-01 09:48:26 51°27.374 2°54.657 359 12.5 -999 29.9
2009-07-01 09:49:26 51°27.581 2°54.656 359.8 12.6 -999 28.6
2009-07-01 09:50:26 51°27.79 2°54.657 359.4 12.7 -999 26.7
2009-07-01 09:51:26 51°28.001 2°54.66 359.9 12.6 -999 23.1
2009-07-01 09:52:26 51°28.211 2°54.666 359.7 12.5 1 21.3
2009-07-01 09:53:26 51°28.42 2°54.672 0.1 12.6 1 22.8
2009-07-01 09:54:26 51°28.63 2°54.681 1.1 12.6 2 22.2
2009-07-01 09:55:26 51°28.84 2°54.693 1.4 12.6 2 25.7
2009-07-01 09:56:26 51°29.048 2°54.698 0.1 12.3 -999 27.1
2009-07-01 09:57:26 51°29.251 2°54.696 1.1 12.2 2 29.1
2009-07-01 09:58:26 51°29.453 2°54.706 0.8 12.1 1 29.7
2009-07-01 09:59:26 51°29.657 2°54.716 0.1 12.2 2 30
2009-07-01 10:00:26 51°29.861 2°54.726 0.3 12.3 1 31.6
2009-07-01 10:01:26 51°30.066 2°54.728 359.3 12.4 -999 34.2
2009-07-01 10:02:26 51°30.273 2°54.735 1.4 12.5 2 34.8
2009-07-01 10:03:26 51°30.48 2°54.742 0.9 12.4 2 34.9
2009-07-01 10:04:26 51°30.687 2°54.743 359.3 12.4 -999 32.3
2009-07-01 10:05:26 51°30.894 2°54.747 1.4 12.4 -999 20
2009-07-01 10:06:26 51°31.103 2°54.745 359.6 12.6 -999 19.4
2009-07-01 10:07:26 51°31.312 2°54.748 0.7 12.5 1 20.2
2009-07-01 10:08:26 51°31.522 2°54.749 1.4 12.6 1 18
2009-07-01 10:09:26 51°31.725 2°54.7 345.9 12.3 345 21.2
2009-07-01 10:10:26 51°31.908 2°54.615 343.1 10 344 22
2009-07-01 10:11:26 51°32.059 2°54.546 343 9.2 344 23
2009-07-01 10:12:26 51°32.206 2°54.483 344.1 9.1 346 23
2009-07-01 10:13:26 51°32.349 2°54.427 344.2 8 346 22.7
2009-07-01 10:14:26 51°32.457 2°54.388 344.8 5.9 348 24
2009-07-01 10:15:26 51°32.541 2°54.358 342.7 4.6 344 23.9
2009-07-01 10:16:26 51°32.586 2°54.3 282.5 2.7 296 24.3
2009-07-01 10:17:26 51°32.587 2°54.249 228.1 1.5 243 25
2009-07-01 10:18:26 51°32.576 2°54.232 203.2 0.7 218 24.5
2009-07-01 10:19:26 51°32.569 2°54.225 201.6 0.5 219 24
2009-07-01 10:20:26 51°32.565 2°54.219 201.1 0.3 221 23.4
2009-07-01 10:21:26 51°32.562 2°54.213 199.5 0.3 208 22.4
2009-07-01 10:22:26 51°32.55 2°54.217 162.8 1 143 21.8
2009-07-01 10:23:26 51°32.541 2°54.247 122.9 1.5 102 23.3
2009-07-01 10:24:26 51°32.545 2°54.295 88.3 2 72 24.9
2009-07-01 10:25:26 51°32.561 2°54.351 77.1 2.5 65 22.1
2009-07-01 10:26:26 51°32.575 2°54.416 91.5 2.6 77 24.6
2009-07-01 10:27:26 51°32.579 2°54.487 103.2 2.7 90 24.6
2009-07-01 10:28:26 51°32.577 2°54.56 110.3 2.8 97 20.4
2009-07-01 10:29:26 51°32.566 2°54.629 124 2.7 111 23.9
2009-07-01 10:30:26 51°32.548 2°54.696 125.3 2.7 113 24.6
2009-07-01 10:31:26 51°32.527 2°54.759 135 2.7 123 24.5
2009-07-01 10:32:26 51°32.502 2°54.817 138 2.7 127 23.7
2009-07-01 10:33:26 51°32.476 2°54.876 135.1 2.7 125 22.4
2009-07-01 10:34:26 51°32.448 2°54.941 136.9 3.2 128 21.8
2009-07-01 10:35:26 51°32.413 2°55.01 138 3.4 130 23
2009-07-01 10:36:26 51°32.373 2°55.086 136.6 3.9 130 23.3
2009-07-01 10:37:26 51°32.324 2°55.175 137.3 4.9 131 23.6
2009-07-01 10:38:26 51°32.267 2°55.279 137.2 5.3 132 22.4
2009-07-01 10:39:26 51°32.206 2°55.386 137.2 5.5 132 21.1
2009-07-01 10:40:26 51°32.146 2°55.497 136.5 5.5 131 18.9
2009-07-01 10:41:26 51°32.094 2°55.597 135.8 4.5 129 21.7
2009-07-01 10:42:26 51°32.05 2°55.684 135.5 4.1 128 22.1
2009-07-01 10:43:26 51°32.01 2°55.77 135.8 3.9 128 21.7
2009-07-01 10:44:26 51°31.976 2°55.842 136 3 126 21.1
2009-07-01 10:45:26 51°31.955 2°55.9 130.2 2.2 117 21.1
2009-07-01 10:46:26 51°31.941 2°55.947 128.9 1.8 111 20.3
2009-07-01 10:47:26 51°31.932 2°55.988 127.8 1.5 111 19.9
2009-07-01 10:48:26 51°31.925 2°56.023 127.1 1.3 109 21.4
2009-07-01 10:49:26 51°31.919 2°56.055 127.1 1.2 110 21.1
2009-07-01 10:50:26 51°31.912 2°56.085 126.4 1.2 108 20.7
2009-07-01 10:51:26 51°31.908 2°56.115 124.7 1.1 103 20.3
2009-07-01 10:52:26 51°31.903 2°56.145 122.7 1.1 100 19.9
2009-07-01 10:53:26 51°31.9 2°56.175 120.2 1.1 98 19.6
2009-07-01 10:54:26 51°31.896 2°56.202 121.3 1 101 18.9
2009-07-01 10:55:26 51°31.892 2°56.23 121.4 1.1 103 17.6
2009-07-01 10:56:26 51°31.89 2°56.258 120.8 1.1 96 14.6
2009-07-01 10:57:26 51°31.887 2°56.286 121.1 1 106 17.4
2009-07-01 10:58:26 51°31.885 2°56.312 118.9 0.9 94 18.8
2009-07-01 10:59:26 51°31.886 2°56.331 111.4 0.6 80 19.1
2009-07-01 11:00:26 51°31.887 2°56.343 105.2 0.4 78 19.6
2009-07-01 11:01:26 51°31.89 2°56.35 102.5 0.3 55 19.6
2009-07-01 11:02:26 51°31.89 2°56.37 109.7 2.1 108 19.6
2009-07-01 11:03:26 51°31.861 2°56.48 117.7 6.7 113 19
2009-07-01 11:04:26 51°31.78 2°56.608 145.5 6.8 141 17.9
2009-07-01 11:05:26 51°31.718 2°56.688 162.7 4.1 166 17.8
2009-07-01 11:06:26 51°31.639 2°56.623 218 6.5 224 17.9
2009-07-01 11:07:26 51°31.582 2°56.463 242 7.3 243 19.2
2009-07-01 11:08:26 51°31.521 2°56.295 242.6 6.8 247 18.9
2009-07-01 11:09:26 51°31.511 2°56.181 270.7 2.8 278 17.8
2009-07-01 11:10:26 51°31.521 2°56.122 283.9 1.9 294 17.3
2009-07-01 11:11:26 51°31.532 2°56.087 294.9 1.1 299 18
2009-07-01 11:12:26 51°31.539 2°56.067 305.4 0.8 300 18
2009-07-01 11:13:26 51°31.546 2°56.052 313.9 0.7 303 18.4
2009-07-01 11:14:26 51°31.552 2°56.039 320.3 0.5 292 18.6
2009-07-01 11:15:26 51°31.556 2°56.027 321.7 0.6 301 18.6
2009-07-01 11:16:26 51°31.559 2°56.014 319.4 0.4 284 18.7
2009-07-01 11:17:26 51°31.561 2°56.001 313.4 0.4 286 18.6
2009-07-01 11:18:26 51°31.561 2°55.989 306.9 0.5 266 18.1
2009-07-01 11:19:26 51°31.562 2°55.978 301.3 0.4 280 18.1
2009-07-01 11:20:26 51°31.562 2°55.968 298.3 0.4 270 17.7
2009-07-01 11:21:26 51°31.563 2°55.958 295 0.4 282 17.3
2009-07-01 11:22:26 51°31.562 2°55.949 292 0.4 260 16.4
2009-07-01 11:23:26 51°31.561 2°55.94 289.5 0.3 258 15.1
2009-07-01 11:24:26 51°31.56 2°55.931 287.6 0.4 267 16.5
2009-07-01 11:25:26 51°31.559 2°55.922 286.8 0.4 252 16.8
2009-07-01 11:26:27 51°31.558 2°55.913 286.1 0.3 260 17.8
2009-07-01 11:27:26 51°31.569 2°55.873 308.7 3.1 310 18
2009-07-01 11:28:26 51°31.622 2°55.841 10.2 3.3 5 19.5
2009-07-01 11:29:26 51°31.674 2°55.875 38.6 3.4 31 18
2009-07-01 11:30:26 51°31.718 2°55.905 18.7 2.5 11 19.5
2009-07-01 11:31:26 51°31.749 2°55.911 9.7 1.5 356 19.7
2009-07-01 11:32:26 51°31.768 2°55.902 353.9 1.1 337 19.7
2009-07-01 11:33:26 51°31.784 2°55.888 344.5 1 325 19.4
2009-07-01 11:34:26 51°31.796 2°55.872 339 0.9 313 19.3
2009-07-01 11:35:27 51°31.804 2°55.856 336.7 0.7 313 19.8
2009-07-01 11:36:26 51°31.811 2°55.841 334 0.6 303 19.9
2009-07-01 11:37:26 51°31.816 2°55.824 332.3 0.7 294 20.1
2009-07-01 11:38:26 51°31.818 2°55.809 331.1 0.6 279 20.2
2009-07-01 11:39:26 51°31.819 2°55.794 325.7 0.5 276 20.3
2009-07-01 11:40:26 51°31.819 2°55.779 316.4 0.5 262 20.8
2009-07-01 11:41:26 51°31.817 2°55.766 309.8 0.5 263 20.6
2009-07-01 11:42:26 51°31.814 2°55.752 302.4 0.5 257 20.6
2009-07-01 11:43:26 51°31.811 2°55.741 297.7 0.5 242 20.6
2009-07-01 11:44:26 51°31.808 2°55.73 291.1 0.4 235 20.2
2009-07-01 11:45:26 51°31.803 2°55.721 286 0.4 229 20
2009-07-01 11:46:26 51°31.801 2°55.705 289 0.9 266 19.2
2009-07-01 11:47:26 51°31.814 2°55.667 323.8 2.5 318 19
2009-07-01 11:48:26 51°31.861 2°55.663 32.5 3.2 30 20.9
2009-07-01 11:49:26 51°31.904 2°55.731 54.1 4 49 19.1
2009-07-01 11:50:26 51°31.95 2°55.815 56 4.1 51 20.6
2009-07-01 11:51:26 51°31.983 2°55.898 64 3.3 60 18.8
2009-07-01 11:52:26 51°32.006 2°55.956 59.7 1.9 54 18.4
2009-07-01 11:53:26 51°32.02 2°55.978 41.5 0.6 26 19.6
2009-07-01 11:54:26 51°32.022 2°55.974 31.5 0.3 264 19.5
2009-07-01 11:55:26 51°32.02 2°55.964 27.3 0.5 258 19.5
2009-07-01 11:56:26 51°32.016 2°55.95 18.8 0.7 245 18.9
2009-07-01 11:57:26 51°32.01 2°55.935 6.3 0.7 238 18.8
2009-07-01 11:58:27 51°32.003 2°55.922 350.8 0.6 230 18.5
2009-07-01 11:59:26 51°31.997 2°55.912 336.1 0.6 229 17
2009-07-01 12:00:26 51°31.989 2°55.902 322.9 0.6 226 17.9
2009-07-01 12:01:26 51°31.983 2°55.891 309 0.5 230 19.1
2009-07-01 12:02:26 51°31.977 2°55.881 296.7 0.5 224 19.9
2009-07-01 12:03:26 51°31.97 2°55.869 285.5 0.6 221 20.4
2009-07-01 12:04:26 51°31.964 2°55.858 279.8 0.5 232 20.7
2009-07-01 12:05:27 51°31.957 2°55.846 279.3 0.6 224 20.7
2009-07-01 12:06:26 51°31.95 2°55.834 278.5 0.6 228 20.6
2009-07-01 12:07:26 51°31.943 2°55.822 280.8 0.7 223 20.5
2009-07-01 12:08:26 51°31.935 2°55.81 283 0.7 230 20
2009-07-01 12:09:26 51°31.928 2°55.797 286.3 0.6 233 19.5
2009-07-01 12:10:26 51°31.921 2°55.783 289.7 0.8 233 17.3
2009-07-01 12:11:26 51°31.913 2°55.769 293.2 0.7 231 18.3
2009-07-01 12:12:26 51°31.905 2°55.755 296.4 0.8 226 19
2009-07-01 12:13:26 51°31.895 2°55.742 295.5 0.7 223 18.3
2009-07-01 12:14:26 51°31.886 2°55.728 293.3 0.7 223 17
2009-07-01 12:15:26 51°31.876 2°55.714 291.3 0.8 221 19.4
2009-07-01 12:16:26 51°31.866 2°55.701 287.8 0.8 217 20.2
2009-07-01 12:17:26 51°31.857 2°55.689 282.6 0.8 221 20.7
2009-07-01 12:18:27 51°31.848 2°55.677 279.1 0.6 221 20.5
2009-07-01 12:19:26 51°31.838 2°55.664 277.6 0.7 221 20.2
2009-07-01 12:20:26 51°31.829 2°55.65 276.7 0.8 223 19.2
2009-07-01 12:21:26 51°31.819 2°55.635 277.3 0.8 225 16.5
2009-07-01 12:22:26 51°31.809 2°55.62 279.3 0.9 225 19.1
2009-07-01 12:23:26 51°31.8 2°55.605 281.7 0.8 224 19.8
2009-07-01 12:24:26 51°31.79 2°55.59 284 0.7 223 19.4
2009-07-01 12:25:26 51°31.78 2°55.575 285.3 0.8 223 18.9
2009-07-01 12:26:26 51°31.77 2°55.56 285.5 0.8 221 20.2
2009-07-01 12:27:27 51°31.758 2°55.545 284.6 0.9 219 19.8
2009-07-01 12:28:26 51°31.747 2°55.53 282.8 0.9 220 18
2009-07-01 12:29:26 51°31.735 2°55.515 280.9 1 219 17.8
2009-07-01 12:30:26 51°31.723 2°55.499 279.9 0.9 222 19.4
2009-07-01 12:31:26 51°31.711 2°55.482 279.5 0.9 218 19.7
2009-07-01 12:32:26 51°31.699 2°55.466 277.3 0.9 219 18.6
2009-07-01 12:33:26 51°31.687 2°55.45 276.5 1 218 17.4
2009-07-01 12:34:26 51°31.674 2°55.433 275.4 1 220 19.3
2009-07-01 12:35:26 51°31.662 2°55.416 275.7 1 221 19.3
2009-07-01 12:36:26 51°31.649 2°55.398 276.6 1 223 17
2009-07-01 12:37:26 51°31.638 2°55.379 278.4 1.1 220 18.7
2009-07-01 12:38:27 51°31.626 2°55.361 282.4 1 222 18.8
2009-07-01 12:39:27 51°31.614 2°55.342 282.2 1.1 221 16.2
2009-07-01 12:40:26 51°31.602 2°55.322 280.4 1.2 227 18.2
2009-07-01 12:41:27 51°31.592 2°55.284 282.6 2 259 19.3
2009-07-01 12:42:26 51°31.589 2°55.216 286 3 270 18.7
2009-07-01 12:43:26 51°31.589 2°55.133 277.9 2.9 268 18.6
2009-07-01 12:44:26 51°31.577 2°55.066 255.1 2.5 248 19.3
2009-07-01 12:45:26 51°31.557 2°55.014 233.2 2.3 232 18.3
2009-07-01 12:46:26 51°31.533 2°54.975 210.8 1.9 221 19.1
2009-07-01 12:47:26 51°31.507 2°54.948 188.1 1.7 206 17.5
2009-07-01 12:48:27 51°31.481 2°54.933 164.7 1.7 195 19
2009-07-01 12:49:26 51°31.455 2°54.927 157.2 1.8 187 17.6
2009-07-01 12:50:26 51°31.425 2°54.922 159 2 184 18.1
2009-07-01 12:51:26 51°31.39 2°54.92 161.2 2.3 182 18.2
2009-07-01 12:52:27 51°31.349 2°54.917 165.5 2.6 184 17.8
2009-07-01 12:53:26 51°31.306 2°54.911 171 2.7 187 17.3
2009-07-01 12:54:26 51°31.259 2°54.899 179.1 3.2 191 18.6
2009-07-01 12:55:26 51°31.206 2°54.881 182.4 4.2 188 18.6
2009-07-01 12:56:26 51°31.088 2°54.854 185.2 9 189 17.9
2009-07-01 12:57:26 51°30.916 2°54.821 185.2 11.8 187 18.1
2009-07-01 12:58:26 51°30.71 2°54.777 186.3 12.7 187 30.3
2009-07-01 12:59:26 51°30.502 2°54.734 185.2 12.7 189 33.4
2009-07-01 13:00:26 51°30.297 2°54.669 191.1 12.5 192 32.9
2009-07-01 13:01:26 51°30.095 2°54.598 190 12.4 192 32.5
2009-07-01 13:02:26 51°29.89 2°54.534 189.6 12.8 192 31.4
2009-07-01 13:03:26 51°29.685 2°54.471 190 12.6 190 28.9
2009-07-01 13:04:26 51°29.48 2°54.401 191.4 12.7 192 28.4
2009-07-01 13:05:26 51°29.274 2°54.33 189.5 12.6 192 27.1
2009-07-01 13:06:26 51°29.069 2°54.257 189.2 12.6 193 25.6
2009-07-01 13:07:26 51°28.864 2°54.189 189.4 12.5 191 24.6
2009-07-01 13:08:26 51°28.659 2°54.115 190.6 12.5 194 23.6
2009-07-01 13:09:26 51°28.455 2°54.038 191.1 12.5 194 21.8
2009-07-01 13:10:26 51°28.249 2°53.961 191.1 12.7 193 19.8
2009-07-01 13:11:26 51°28.044 2°53.888 189.8 12.6 193 21
2009-07-01 13:12:26 51°27.841 2°53.811 189.7 12.5 193 20.3
2009-07-01 13:13:27 51°27.635 2°53.731 189.8 12.3 193 20.1
2009-07-01 13:14:26 51°27.434 2°53.653 189.9 12.6 192 25.3
2009-07-01 13:15:26 51°27.229 2°53.578 189.5 12.6 192 24.7
2009-07-01 13:16:26 51°27.023 2°53.497 190.9 12.7 194 26.4
2009-07-01 13:17:26 51°26.817 2°53.418 190.5 12.8 192 27
2009-07-01 13:18:26 51°26.613 2°53.344 190.2 12.7 193 30.4
2009-07-01 13:19:26 51°26.409 2°53.266 191.1 12.6 195 29.5
2009-07-01 13:20:27 51°26.202 2°53.183 189.8 12.7 194 29.1
2009-07-01 13:21:26 51°25.997 2°53.119 185.9 12.7 189 28.2
2009-07-01 13:22:26 51°25.789 2°53.061 185.9 12.6 189 24.6
2009-07-01 13:23:26 51°25.582 2°53.016 177.6 12.5 181 23.3
2009-07-01 13:24:26 51°25.375 2°53.044 169 12.5 174 22.6
2009-07-01 13:25:26 51°25.168 2°53.081 169.1 12.5 173 21.8
2009-07-01 13:26:26 51°24.96 2°53.097 177.6 12.7 182 19.3
2009-07-01 13:27:26 51°24.749 2°53.073 181.7 13 185 18.1
2009-07-01 13:28:27 51°24.533 2°53.038 181.7 12.7 185 17.3
2009-07-01 13:29:26 51°24.326 2°53.006 180.1 12.8 185 17.5
2009-07-01 13:30:26 51°24.113 2°52.977 179.9 12.9 185 16.7
2009-07-01 13:31:27 51°23.895 2°52.947 180.1 13 184 17.3
2009-07-01 13:32:26 51°23.684 2°52.913 179.9 12.9 186 19.5
2009-07-01 13:33:26 51°23.471 2°52.875 180.5 12.9 186 19.8
2009-07-01 13:34:26 51°23.257 2°52.835 181.4 13 187 20
2009-07-01 13:35:27 51°23.04 2°52.795 181.5 13 186 21.8
2009-07-01 13:36:26 51°22.829 2°52.761 180.3 12.9 186 22.1
2009-07-01 13:37:26 51°22.617 2°52.727 180.1 12.9 186 21.9
2009-07-01 13:38:27 51°22.401 2°52.685 180.7 13.1 187 22.2
2009-07-01 13:39:26 51°22.19 2°52.648 179.7 13 187 23
2009-07-01 13:40:26 51°21.977 2°52.608 181.2 12.8 188 22.4
2009-07-01 13:41:26 51°21.766 2°52.566 180.4 12.7 187 20.3
2009-07-01 13:42:26 51°21.559 2°52.526 180.1 12.5 187 18.2
2009-07-01 13:43:26 51°21.351 2°52.493 179.4 12.4 185 16.4
2009-07-01 13:44:26 51°21.145 2°52.46 178.9 12.4 186 15.4
2009-07-01 13:45:27 51°20.935 2°52.423 180.8 12.5 187 14.1
2009-07-01 13:46:27 51°20.728 2°52.38 181.4 12.7 188 13.3
2009-07-01 13:47:26 51°20.524 2°52.352 174.9 12.5 182 13.6
2009-07-01 13:48:26 51°20.315 2°52.349 173.4 12.5 180 15.2
2009-07-01 13:49:26 51°20.106 2°52.352 171.5 12.6 179 15.3
2009-07-01 13:50:26 51°19.896 2°52.35 172.3 12.6 181 15.3
2009-07-01 13:51:26 51°19.686 2°52.349 173.2 12.6 181 15.1
2009-07-01 13:52:27 51°19.473 2°52.347 173.9 12.5 182 14.5
2009-07-01 13:53:27 51°19.265 2°52.341 173.8 12.6 180 13.9
2009-07-01 13:54:27 51°19.057 2°52.338 173.8 12.6 180 13
2009-07-01 13:55:26 51°18.852 2°52.338 173.6 12.6 180 12
2009-07-01 13:56:26 51°18.642 2°52.341 173.4 12.5 179 11.1
2009-07-01 13:57:26 51°18.434 2°52.35 173.2 12.6 179 10.5
2009-07-01 13:58:27 51°18.221 2°52.359 173.3 12.7 178 10.1
2009-07-01 13:59:27 51°18.012 2°52.365 173.2 12.4 178 9.8
2009-07-01 14:00:26 51°17.806 2°52.373 173.6 12.5 179 9.6
2009-07-01 14:01:27 51°17.592 2°52.376 174.2 12.7 180 9.6
2009-07-01 14:02:26 51°17.384 2°52.385 174 12.6 178 9.6
2009-07-01 14:03:27 51°17.173 2°52.419 167.5 12.5 171 9.4
2009-07-01 14:04:26 51°16.971 2°52.461 165.6 12.3 170 8.9
2009-07-01 14:05:26 51°16.773 2°52.544 158.3 12.3 164 9.2
2009-07-01 14:06:26 51°16.575 2°52.63 160.5 12.2 164 10.6
2009-07-01 14:07:26 51°16.378 2°52.715 160 12.3 166 11.3
2009-07-01 14:08:26 51°16.182 2°52.801 155.4 12.2 164 11.3
2009-07-01 14:09:26 51°15.99 2°52.899 153.5 12 160 11.1
2009-07-01 14:10:27 51°15.802 2°53.019 148.8 11.9 157 10.9
2009-07-01 14:11:26 51°15.624 2°53.146 148.8 11.8 156 10.6
2009-07-01 14:12:26 51°15.444 2°53.275 146.8 11.8 154 9.8
2009-07-01 14:13:27 51°15.276 2°53.434 140.4 10.7 147 9.6
2009-07-01 14:14:26 51°15.157 2°53.589 124.1 7.9 131 9.3
2009-07-01 14:15:27 51°15.092 2°53.729 114.1 5.6 125 9.2
2009-07-01 14:16:26 51°15.045 2°53.842 108.3 4.7 121 9.2
2009-07-01 14:17:27 51°15.009 2°53.946 103.6 4.3 117 9.2
2009-07-01 14:18:27 51°14.977 2°54.043 102.7 4.1 119 9
2009-07-01 14:19:27 51°14.938 2°54.145 108.6 5.1 124 8.5
2009-07-01 14:20:26 51°14.867 2°54.279 124.3 7.7 133 8.9
2009-07-01 14:21:26 51°14.759 2°54.445 132.5 10.2 138 9.5
2009-07-01 14:22:27 51°14.615 2°54.625 135.1 11.3 141 9.2
2009-07-01 14:23:27 51°14.469 2°54.825 132.2 11.6 135 9.9
2009-07-01 14:24:27 51°14.346 2°55.06 126.4 11.1 128 9.8
2009-07-01 14:25:26 51°14.258 2°55.241 132.9 7.8 133 9.9
2009-07-01 14:26:27 51°14.156 2°55.371 147.3 7.7 149 8.8
2009-07-01 14:27:26 51°14.039 2°55.466 154.7 8 156 8.5
2009-07-01 14:28:27 51°13.929 2°55.547 155.1 7.1 155 10.7
2009-07-01 14:29:27 51°13.822 2°55.632 150.3 7.2 149 10.2
2009-07-01 14:30:31 51°13.741 2°55.746 131.7 5.1 131 -999
2009-07-01 14:31:30 51°13.697 2°55.832 120.6 3.6 124 -999
2009-07-01 14:32:31 51°13.672 2°55.917 111.1 3.3 112 -999
2009-07-01 14:33:31 51°13.662 2°55.954 118.1 0.3 132 -999